Terminal Aerodrome Forecast
Issued by NWS

Home | Current Version | Previous Version | Text Only | Print | Product List | Glossary Off
Versions: 1 2 3 4 5 6 7 8 9 10 11 12 13 14 15 16 17 18 19 20 21 22

000
FTUS41 KCLE 300532
TAFFDY
TAF
KFDY 300532Z 3006/3106 20010KT P6SM SCT060 BKN150
     FM301400 22012KT P6SM SCT050 BKN120
     FM301900 22012G20KT 6SM -TSRA OVC040CB
     FM310000 20012KT 4SM -TSRA BR OVC035CB
     FM310400 06008KT 3SM -SHRA BR OVC015=

USA.gov is the U.S. government's official web portal to all federal, state and local government web resources and services.